Time;durP1;ratioP1;P1;durP2;ratioP2;P2;SDS_P1;SDS_P2;PMS_P1;PMS_P2;Temp;Humidity;BMP_temperature;BMP_pressure;BME280_temperature;BME280_humidity;BME280_pressure;Samples;Min_cycle;Max_cycle;Signal;HPM_P1;HPM_P2
2022/05/23 00:00:11;;;;;;;1.40;0.75;;;25.30;41.20;;;;;;5045552;28;20025;-50
2022/05/23 00:02:37;;;;;;;2.45;0.82;;;25.30;41.30;;;;;;5046534;28;20032;-49
2022/05/23 00:05:03;;;;;;;2.53;1.15;;;25.30;41.20;;;;;;5046771;28;20023;-48
2022/05/23 00:07:35;;;;;;;2.03;0.90;;;25.30;41.30;;;;;;5047583;28;20017;-49
2022/05/23 00:10:02;;;;;;;1.80;0.80;;;25.30;41.30;;;;;;5045565;28;20049;-50
2022/05/23 00:12:28;;;;;;;1.35;0.70;;;25.30;41.10;;;;;;5045636;28;20029;-48
2022/05/23 00:14:54;;;;;;;2.38;0.68;;;25.30;40.90;;;;;;5046831;28;20440;-50
2022/05/23 00:17:20;;;;;;;2.08;0.93;;;25.30;40.90;;;;;;5047451;28;20104;-49
2022/05/23 00:19:47;;;;;;;1.95;1.05;;;25.30;40.90;;;;;;5046921;28;20029;-49
2022/05/23 00:22:14;;;;;;;2.15;1.23;;;25.30;40.80;;;;;;5029457;28;20033;-50
2022/05/23 00:24:41;;;;;;;1.73;0.90;;;25.30;40.80;;;;;;5046696;28;20108;-49
2022/05/23 00:27:10;;;;;;;1.98;1.00;;;25.30;40.90;;;;;;5047177;28;20036;-48
2022/05/23 00:29:36;;;;;;;2.00;0.88;;;25.30;40.90;;;;;;5046773;28;20084;-50
2022/05/23 00:37:31;;;;;;;1.25;0.73;;;25.20;41.10;;;;;;5046271;28;20032;-49
2022/05/23 00:39:57;;;;;;;1.25;0.80;;;25.20;41.10;;;;;;5046699;28;20021;-50
2022/05/23 00:45:17;;;;;;;2.22;0.95;;;25.20;41.20;;;;;;5046571;28;20060;-50
2022/05/23 00:47:45;;;;;;;1.30;0.80;;;25.20;41.20;;;;;;5044904;28;20066;-49
2022/05/23 00:50:14;;;;;;;2.30;0.90;;;25.20;41.30;;;;;;5046933;28;20021;-49
2022/05/23 00:52:53;;;;;;;2.03;0.88;;;25.20;41.30;;;;;;5046035;28;20029;-49
2022/05/23 00:55:36;;;;;;;1.50;0.80;;;25.20;41.30;;;;;;5043697;28;20040;-50
2022/05/23 00:58:14;;;;;;;1.27;0.63;;;25.20;41.20;;;;;;5044629;28;20109;-48
2022/05/23 01:00:39;;;;;;;2.33;1.00;;;25.20;41.20;;;;;;5044550;28;20033;-49
2022/05/23 01:03:12;;;;;;;1.88;0.90;;;25.20;41.10;;;;;;5045891;28;20545;-49
2022/05/23 01:05:39;;;;;;;1.77;0.70;;;25.20;41.10;;;;;;5045316;28;20033;-49
2022/05/23 01:08:06;;;;;;;1.42;0.70;;;25.20;41.00;;;;;;5045763;28;20025;-48
2022/05/23 01:10:34;;;;;;;2.78;1.00;;;25.20;41.00;;;;;;5045778;28;20032;-49
2022/05/23 01:13:00;;;;;;;1.77;0.98;;;25.20;41.00;;;;;;5044470;28;20028;-49
2022/05/23 01:15:30;;;;;;;1.63;0.80;;;25.20;41.00;;;;;;5045571;28;20697;-49
2022/05/23 01:17:56;;;;;;;1.65;0.80;;;25.20;41.00;;;;;;5044667;28;20588;-49
2022/05/23 01:20:23;;;;;;;1.52;0.77;;;25.20;41.10;;;;;;5045821;28;20078;-49
2022/05/23 01:23:08;;;;;;;1.00;0.52;;;25.20;41.10;;;;;;5045605;28;20036;-50
2022/05/23 01:25:39;;;;;;;1.70;0.70;;;25.20;41.20;;;;;;5045432;28;20100;-50
2022/05/23 01:28:06;;;;;;;2.25;0.90;;;25.20;41.20;;;;;;5045143;28;20025;-50
2022/05/23 01:30:34;;;;;;;1.95;0.77;;;25.10;41.20;;;;;;5045173;28;20104;-50
2022/05/23 01:33:02;;;;;;;2.00;0.73;;;25.20;41.20;;;;;;5043851;28;20036;-49
2022/05/23 01:35:27;;;;;;;1.67;0.82;;;25.20;41.30;;;;;;5045945;28;20059;-49
2022/05/23 01:37:53;;;;;;;3.13;1.02;;;25.20;41.30;;;;;;5045053;28;20064;-49
2022/05/23 01:40:20;;;;;;;1.67;0.85;;;25.20;41.30;;;;;;5045536;28;20108;-49
2022/05/23 01:42:46;;;;;;;1.77;0.77;;;25.20;41.30;;;;;;5045483;28;20488;-50
2022/05/23 01:45:15;;;;;;;2.30;0.98;;;25.20;41.30;;;;;;5043040;28;20032;-49
2022/05/23 01:47:41;;;;;;;1.77;0.80;;;25.20;41.30;;;;;;5045533;28;20131;-49
2022/05/23 01:50:08;;;;;;;1.67;0.80;;;25.10;41.10;;;;;;5045104;28;20025;-49
2022/05/23 01:52:34;;;;;;;1.23;0.57;;;25.10;41.10;;;;;;5027594;28;20111;-50
2022/05/23 01:54:59;;;;;;;2.05;0.82;;;25.20;41.00;;;;;;5042574;28;20584;-49
2022/05/23 01:57:26;;;;;;;1.70;0.75;;;25.10;41.00;;;;;;5044589;28;20393;-49
2022/05/23 02:02:36;;;;;;;2.03;0.70;;;25.10;41.00;;;;;;5044485;28;20094;-49
2022/05/23 02:05:03;;;;;;;2.15;0.75;;;25.10;41.00;;;;;;5044595;28;20031;-49
2022/05/23 02:07:29;;;;;;;1.33;0.68;;;25.10;41.00;;;;;;5045458;28;20491;-48
2022/05/23 02:09:55;;;;;;;1.83;0.80;;;25.10;41.00;;;;;;5044790;28;20417;-48
2022/05/23 02:12:21;;;;;;;1.60;0.70;;;25.10;41.10;;;;;;5044807;28;20116;-50
2022/05/23 02:14:49;;;;;;;2.03;0.70;;;25.10;41.10;;;;;;5044208;28;20025;-48
2022/05/23 02:17:15;;;;;;;1.38;0.57;;;25.10;41.20;;;;;;5043018;28;20036;-50
2022/05/23 02:19:41;;;;;;;1.52;0.60;;;25.10;41.20;;;;;;5044900;28;20032;-50
2022/05/23 02:22:07;;;;;;;1.25;0.68;;;25.10;41.20;;;;;;5044828;28;20031;-50
2022/05/23 02:24:33;;;;;;;1.02;0.50;;;25.10;41.20;;;;;;5044489;28;20404;-50
2022/05/23 02:26:59;;;;;;;1.63;0.50;;;25.10;41.20;;;;;;5045049;28;20047;-50
2022/05/23 02:29:24;;;;;;;1.73;0.98;;;25.10;41.20;;;;;;5044288;28;20036;-49
2022/05/23 02:31:50;;;;;;;1.60;0.65;;;25.10;41.30;;;;;;5044535;28;20056;-48
2022/05/23 02:34:17;;;;;;;2.25;0.80;;;25.10;41.20;;;;;;5043903;28;20541;-49
2022/05/23 02:36:45;;;;;;;2.03;0.70;;;25.10;41.20;;;;;;5043972;28;20029;-48
2022/05/23 02:39:10;;;;;;;2.75;0.90;;;25.10;41.10;;;;;;5044636;28;20032;-50
2022/05/23 02:41:36;;;;;;;1.95;0.60;;;25.10;41.10;;;;;;5044493;28;20025;-49
2022/05/23 02:44:03;;;;;;;1.55;0.70;;;25.10;41.10;;;;;;5043773;28;20665;-49
2022/05/23 02:46:28;;;;;;;2.05;0.90;;;25.10;41.00;;;;;;5043876;28;20029;-49
2022/05/23 02:48:55;;;;;;;1.50;0.60;;;25.10;41.00;;;;;;5043814;28;20024;-48
2022/05/23 02:51:21;;;;;;;1.27;0.55;;;25.10;41.00;;;;;;5042550;28;20029;-49
2022/05/23 02:53:47;;;;;;;1.58;0.60;;;25.10;41.00;;;;;;5043726;28;20623;-50
2022/05/23 02:56:13;;;;;;;1.27;0.43;;;25.10;41.00;;;;;;5043976;28;20045;-49
2022/05/23 02:58:38;;;;;;;1.33;0.60;;;25.10;41.10;;;;;;5043325;28;20021;-50
2022/05/23 03:01:05;;;;;;;2.70;0.90;;;25.10;41.10;;;;;;5043243;28;20040;-48
2022/05/23 03:03:32;;;;;;;2.00;0.90;;;25.10;41.20;;;;;;5043878;28;20108;-49
2022/05/23 03:05:58;;;;;;;2.45;0.80;;;25.10;41.20;;;;;;5043664;28;20056;-47
2022/05/23 03:08:26;;;;;;;2.05;0.50;;;25.10;41.20;;;;;;5044407;28;20053;-50
2022/05/23 03:10:55;;;;;;;2.65;0.82;;;25.00;41.20;;;;;;5043392;28;20078;-50
2022/05/23 03:13:20;;;;;;;1.45;0.60;;;25.00;41.20;;;;;;5043309;28;20029;-49
2022/05/23 03:15:46;;;;;;;1.13;0.50;;;25.00;41.90;;;;;;5043902;28;20131;-50
2022/05/23 03:18:12;;;;;;;1.60;0.80;;;25.00;41.20;;;;;;5040780;28;20537;-50
2022/05/23 03:20:38;;;;;;;1.55;0.80;;;25.00;41.20;;;;;;5042251;28;20090;-50
2022/05/23 03:28:34;;;;;;;1.33;0.68;;;25.00;41.10;;;;;;5043834;28;20033;-49
2022/05/23 03:30:59;;;;;;;1.63;0.70;;;25.00;41.30;;;;;;5042958;28;20107;-50
2022/05/23 03:33:25;;;;;;;1.50;0.68;;;25.00;41.20;;;;;;5041729;28;20108;-50
2022/05/23 03:35:51;;;;;;;1.77;0.70;;;25.00;41.20;;;;;;5043457;28;20028;-48
2022/05/23 03:38:17;;;;;;;3.20;1.00;;;25.00;41.10;;;;;;5043760;28;20467;-50
2022/05/23 03:40:44;;;;;;;1.95;0.80;;;25.00;41.10;;;;;;5043743;28;20095;-48
2022/05/23 03:43:10;;;;;;;1.80;0.90;;;25.00;41.10;;;;;;5043028;28;20676;-48
2022/05/23 03:45:37;;;;;;;1.67;0.73;;;25.00;41.10;;;;;;5043270;28;20110;-50
2022/05/23 03:48:03;;;;;;;2.85;1.08;;;25.00;41.10;;;;;;5043360;28;20028;-48
2022/05/23 03:50:31;;;;;;;2.05;0.70;;;25.00;41.10;;;;;;5040107;28;20029;-47
2022/05/23 03:52:57;;;;;;;2.15;0.85;;;25.00;41.10;;;;;;5042748;28;20029;-48
2022/05/23 03:55:23;;;;;;;1.67;0.70;;;25.00;41.20;;;;;;5025612;28;20036;-49
2022/05/23 03:57:49;;;;;;;2.00;0.80;;;25.00;41.20;;;;;;5041704;28;20080;-49
2022/05/23 04:00:17;;;;;;;1.70;0.90;;;25.00;41.20;;;;;;5042856;28;20787;-49
2022/05/23 04:02:43;;;;;;;1.65;0.63;;;25.00;41.20;;;;;;5042083;28;20055;-48
2022/05/23 04:05:11;;;;;;;2.13;0.70;;;25.00;41.20;;;;;;5042626;28;20079;-50
2022/05/23 04:07:39;;;;;;;1.55;0.80;;;25.00;41.20;;;;;;5043692;28;20721;-50
2022/05/23 04:10:14;;;;;;;2.13;1.02;;;25.00;41.20;;;;;;5043175;28;20075;-49
2022/05/23 04:12:41;;;;;;;1.65;0.80;;;25.00;41.30;;;;;;5039878;28;20056;-50
2022/05/23 04:15:07;;;;;;;2.13;0.68;;;25.00;41.20;;;;;;5041028;28;20025;-49
2022/05/23 04:17:34;;;;;;;1.88;0.70;;;25.00;41.20;;;;;;5042897;28;20021;-50
2022/05/23 04:20:00;;;;;;;1.55;0.60;;;25.00;41.20;;;;;;5043384;28;20028;-49
2022/05/23 04:22:26;;;;;;;2.70;0.93;;;25.00;41.20;;;;;;5023378;28;20245;-50
2022/05/23 04:24:51;;;;;;;1.88;0.73;;;25.00;41.10;;;;;;5042869;28;20035;-49
2022/05/23 04:27:17;;;;;;;2.03;0.82;;;25.00;41.10;;;;;;5042339;28;20033;-49
2022/05/23 04:29:43;;;;;;;2.53;1.02;;;25.00;41.10;;;;;;5044031;28;20028;-49
2022/05/23 04:37:39;;;;;;;1.90;0.80;;;25.00;41.20;;;;;;5045195;28;20028;-50
2022/05/23 04:40:05;;;;;;;1.20;0.60;;;25.00;41.20;;;;;;5046086;28;20079;-48
2022/05/23 04:42:31;;;;;;;2.78;0.85;;;25.00;41.30;;;;;;5046420;28;20504;-49
2022/05/23 04:44:57;;;;;;;2.22;1.13;;;25.00;41.30;;;;;;5028668;28;20044;-49
2022/05/23 04:50:07;;;;;;;15.48;4.18;;;25.00;45.60;;;;;;5046533;28;20067;-51
2022/05/23 04:52:33;;;;;;;12.00;3.97;;;25.00;47.90;;;;;;5045384;28;20032;-50
2022/05/23 04:54:59;;;;;;;11.90;3.55;;;25.10;47.00;;;;;;5046039;28;20025;-49
2022/05/23 04:57:25;;;;;;;10.32;2.92;;;25.10;46.50;;;;;;5028321;28;20437;-49
2022/05/23 04:59:50;;;;;;;9.07;3.45;;;25.10;46.80;;;;;;5044335;28;20590;-50
2022/05/23 05:02:16;;;;;;;8.07;3.70;;;25.10;46.80;;;;;;5045461;28;20563;-49
2022/05/23 05:04:42;;;;;;;9.75;3.55;;;25.10;46.70;;;;;;5043639;28;20021;-49
2022/05/23 05:07:08;;;;;;;8.75;3.17;;;25.10;46.00;;;;;;5045366;28;20082;-48
2022/05/23 05:09:34;;;;;;;6.93;3.03;;;25.10;46.70;;;;;;5046032;28;20040;-48
2022/05/23 05:11:59;;;;;;;6.38;2.88;;;25.10;46.60;;;;;;5044832;28;20075;-50
2022/05/23 05:14:27;;;;;;;7.95;2.40;;;25.20;46.60;;;;;;5043414;28;20029;-49
2022/05/23 05:16:53;;;;;;;7.53;2.38;;;25.20;47.20;;;;;;5045290;28;20063;-49
2022/05/23 05:19:19;;;;;;;5.78;2.15;;;25.10;46.90;;;;;;5041964;28;20664;-49
2022/05/23 05:21:45;;;;;;;4.38;1.70;;;25.20;46.80;;;;;;5032197;28;20112;-48
2022/05/23 05:24:11;;;;;;;4.32;1.77;;;25.20;46.50;;;;;;5035411;28;20098;-47
2022/05/23 05:26:36;;;;;;;10.90;2.20;;;25.30;46.30;;;;;;5043425;28;20824;-45
2022/05/23 05:29:02;;;;;;;6.70;2.17;;;25.30;46.60;;;;;;5044460;28;20094;-45
2022/05/23 05:31:48;;;;;;;5.38;2.03;;;25.30;46.40;;;;;;5044014;28;20040;-46
2022/05/23 05:34:46;;;;;;;3.22;1.55;;;25.30;46.40;;;;;;5043911;28;20107;-45
2022/05/23 05:37:20;;;;;;;5.13;1.52;;;25.30;46.10;;;;;;5044361;28;20032;-46
2022/05/23 05:39:47;;;;;;;6.05;1.77;;;25.40;46.30;;;;;;5044658;28;20314;-46
2022/05/23 05:42:26;;;;;;;4.97;1.88;;;25.40;47.00;;;;;;5043737;28;20036;-47
2022/05/23 05:45:24;;;;;;;4.30;1.45;;;25.40;46.30;;;;;;5041963;28;20091;-46
2022/05/23 05:47:51;;;;;;;5.03;1.90;;;25.40;46.50;;;;;;5029231;28;20682;-46
2022/05/23 05:50:33;;;;;;;3.92;1.35;;;25.40;45.60;;;;;;5045346;28;20535;-47
2022/05/23 05:53:03;;;;;;;3.80;1.30;;;25.40;45.70;;;;;;5045178;28;20020;-46
2022/05/23 05:55:29;;;;;;;3.85;1.75;;;25.50;45.30;;;;;;5045389;28;20033;-47
2022/05/23 05:57:57;;;;;;;4.13;1.50;;;25.50;45.40;;;;;;5045579;28;20029;-48
2022/05/23 06:00:22;;;;;;;6.50;1.48;;;25.50;45.20;;;;;;5043413;28;20488;-48
2022/05/23 06:02:50;;;;;;;3.45;1.63;;;25.50;45.40;;;;;;5045122;28;20041;-47
2022/05/23 06:05:16;;;;;;;3.33;1.13;;;25.50;45.30;;;;;;5045024;28;20025;-48
2022/05/23 06:13:11;;;;;;;3.75;1.30;;;25.50;45.40;;;;;;5045322;28;20112;-48
2022/05/23 06:15:36;;;;;;;3.78;1.13;;;25.50;45.60;;;;;;5045109;28;20501;-49
2022/05/23 06:18:02;;;;;;;3.13;1.13;;;25.60;45.30;;;;;;5044854;28;20528;-47
2022/05/23 06:20:28;;;;;;;3.72;1.30;;;25.60;45.60;;;;;;5045284;28;20021;-46
2022/05/23 06:22:53;;;;;;;3.03;1.00;;;25.60;45.30;;;;;;5044554;28;20033;-46
2022/05/23 06:25:19;;;;;;;2.65;1.02;;;25.60;44.70;;;;;;5044211;28;20029;-46
2022/05/23 06:27:45;;;;;;;2.53;1.02;;;25.60;44.50;;;;;;5043034;28;20032;-49
2022/05/23 06:30:16;;;;;;;3.58;1.15;;;25.70;44.30;;;;;;5044671;28;20056;-48
2022/05/23 06:32:42;;;;;;;3.20;1.10;;;25.70;44.20;;;;;;5043861;28;20115;-48
2022/05/23 06:35:08;;;;;;;2.63;1.13;;;25.70;44.10;;;;;;5044428;28;20044;-48
2022/05/23 06:37:35;;;;;;;3.80;1.30;;;25.70;43.90;;;;;;5043803;28;20518;-47
2022/05/23 06:40:03;;;;;;;2.78;1.15;;;25.70;43.80;;;;;;5041353;28;20103;-48
2022/05/23 06:42:29;;;;;;;3.70;1.05;;;25.70;44.50;;;;;;5023946;28;20095;-48
2022/05/23 06:44:55;;;;;;;2.63;0.95;;;25.70;44.10;;;;;;5042112;28;20033;-49
2022/05/23 06:47:21;;;;;;;2.78;1.10;;;25.70;43.90;;;;;;5043713;28;20566;-48
2022/05/23 06:49:47;;;;;;;2.13;0.93;;;25.70;43.80;;;;;;5025294;28;20033;-48
2022/05/23 06:52:15;;;;;;;2.35;0.90;;;25.70;43.60;;;;;;5025553;28;20028;-48
2022/05/23 06:54:41;;;;;;;2.88;0.90;;;25.70;43.50;;;;;;5044236;28;20255;-48
2022/05/23 06:57:07;;;;;;;2.75;1.08;;;25.70;43.30;;;;;;5044725;28;20039;-48
2022/05/23 06:59:34;;;;;;;2.28;0.95;;;25.70;43.10;;;;;;5044066;28;20021;-48
2022/05/23 07:02:01;;;;;;;2.58;1.23;;;25.70;43.10;;;;;;5044683;28;20029;-49
2022/05/23 07:12:19;;;;;;;2.70;0.93;;;25.70;42.90;;;;;;5044161;28;20025;-49
2022/05/23 07:12:41;;;;;;;2.33;0.90;;;25.70;42.60;;;;;;5044313;28;20028;-47
2022/05/23 07:15:08;;;;;;;3.45;0.98;;;25.70;42.60;;;;;;5044282;28;20021;-48
2022/05/23 07:17:33;;;;;;;3.40;1.00;;;25.70;42.60;;;;;;5026854;28;20076;-48
2022/05/23 07:19:59;;;;;;;3.05;1.00;;;25.70;42.50;;;;;;5044205;28;20118;-47
2022/05/23 07:22:25;;;;;;;3.33;0.82;;;25.70;42.50;;;;;;5026395;28;20028;-49
2022/05/23 07:24:51;;;;;;;3.47;1.35;;;25.70;42.50;;;;;;5044282;28;20040;-49
2022/05/23 07:27:18;;;;;;;2.90;1.02;;;25.60;42.40;;;;;;5044698;28;20099;-48
2022/05/23 07:29:43;;;;;;;4.50;1.02;;;25.70;42.40;;;;;;5043863;28;20480;-48
2022/05/23 07:32:11;;;;;;;2.53;1.02;;;25.70;42.40;;;;;;5044369;28;20021;-48
2022/05/23 07:34:38;;;;;;;2.33;1.02;;;25.70;42.40;;;;;;5044135;28;20374;-48
2022/05/23 07:37:04;;;;;;;2.63;1.10;;;25.70;42.40;;;;;;5044537;28;20025;-48
2022/05/23 07:39:29;;;;;;;4.00;1.00;;;25.60;42.40;;;;;;5044299;28;20024;-48
2022/05/23 07:41:55;;;;;;;2.50;0.85;;;25.70;42.40;;;;;;5041991;28;20060;-49
2022/05/23 07:44:21;;;;;;;2.10;0.70;;;25.70;42.40;;;;;;5032217;28;20086;-47
2022/05/23 07:46:47;;;;;;;2.58;1.05;;;25.60;42.40;;;;;;5044188;28;20049;-48
2022/05/23 07:49:12;;;;;;;3.17;1.40;;;25.70;42.40;;;;;;5029436;28;20105;-49
2022/05/23 07:51:38;;;;;;;2.53;0.77;;;25.60;42.40;;;;;;5024102;28;20036;-49
2022/05/23 08:02:18;;;;;;;3.65;1.50;;;25.60;42.30;;;;;;5024019;28;20504;-49
2022/05/23 08:04:44;;;;;;;3.15;1.10;;;25.60;42.30;;;;;;5026989;28;20477;-48
2022/05/23 08:07:11;;;;;;;2.88;0.95;;;25.60;42.30;;;;;;5028495;28;20032;-49
2022/05/23 08:09:39;;;;;;;2.15;0.90;;;25.60;43.00;;;;;;5042842;28;20040;-48
2022/05/23 08:12:06;;;;;;;4.40;1.50;;;25.60;42.30;;;;;;5048040;28;20056;-47
2022/05/23 08:14:32;;;;;;;4.03;1.10;;;25.60;42.30;;;;;;5047576;28;20303;-47
2022/05/23 08:16:57;;;;;;;2.17;0.70;;;25.60;42.30;;;;;;5047880;28;20044;-49
2022/05/23 08:19:23;;;;;;;2.00;0.90;;;25.60;42.30;;;;;;5047673;28;20040;-47
2022/05/23 08:21:52;;;;;;;3.05;1.10;;;25.60;42.30;;;;;;5047980;28;20433;-47
2022/05/23 08:24:19;;;;;;;2.17;0.80;;;25.60;42.30;;;;;;5047522;28;20064;-48
2022/05/23 08:26:45;;;;;;;3.08;1.15;;;25.60;42.30;;;;;;5048131;28;20035;-49
2022/05/23 08:29:11;;;;;;;3.15;1.00;;;25.60;42.30;;;;;;5029695;28;20033;-48
2022/05/23 08:31:37;;;;;;;3.03;0.80;;;25.60;42.30;;;;;;5047755;28;20049;-48
2022/05/23 08:34:03;;;;;;;2.35;0.77;;;25.60;42.30;;;;;;5047074;28;20033;-48
2022/05/23 08:36:29;;;;;;;2.30;0.68;;;25.60;42.30;;;;;;5047650;28;20100;-47
2022/05/23 08:38:55;;;;;;;2.40;0.93;;;25.60;42.30;;;;;;5047819;28;20025;-47
2022/05/23 08:41:38;;;;;;;2.75;1.10;;;25.60;42.30;;;;;;5047380;28;20463;-46
2022/05/23 08:44:25;;;;;;;2.50;0.75;;;25.60;42.30;;;;;;5046963;28;20082;-47
2022/05/23 08:47:16;;;;;;;2.47;0.80;;;25.60;42.30;;;;;;5047152;28;20137;-48
2022/05/23 08:49:56;;;;;;;2.50;0.88;;;25.50;42.30;;;;;;5047124;28;20360;-48
2022/05/23 08:52:33;;;;;;;2.95;1.30;;;25.60;42.30;;;;;;5046944;28;20017;-48
2022/05/23 08:55:06;;;;;;;2.38;1.00;;;25.60;42.20;;;;;;5047400;28;20029;-47
2022/05/23 08:57:32;;;;;;;;;;;25.60;42.30;;;;;;5047696;28;20037;-49
2022/05/23 09:00:05;;;;;;;2.78;0.80;;;25.60;42.20;;;;;;5046597;28;19908;-48
2022/05/23 09:02:43;;;;;;;1.98;0.82;;;25.50;42.20;;;;;;5046631;28;20044;-48
2022/05/23 09:05:15;;;;;;;2.33;1.00;;;25.50;42.20;;;;;;5046658;28;20033;-48
2022/05/23 09:07:55;;;;;;;2.28;0.70;;;25.50;42.30;;;;;;5047010;28;20056;-49
2022/05/23 09:10:39;;;;;;;1.92;0.73;;;25.50;42.30;;;;;;5027179;28;20693;-48
2022/05/23 09:13:07;;;;;;;2.05;0.90;;;25.50;42.30;;;;;;5029999;28;20029;-49
2022/05/23 09:15:33;;;;;;;2.15;0.90;;;25.50;42.40;;;;;;5039367;28;20611;-48
2022/05/23 09:18:04;;;;;;;1.75;0.80;;;25.50;42.30;;;;;;5046647;28;20017;-48
2022/05/23 09:20:44;;;;;;;1.88;0.77;;;25.50;42.30;;;;;;5046620;28;20037;-48
2022/05/23 09:23:20;;;;;;;1.50;0.73;;;25.50;42.30;;;;;;5046282;28;20925;-48
2022/05/23 09:25:51;;;;;;;2.25;0.82;;;25.50;42.30;;;;;;5046300;28;20044;-48
2022/05/23 09:28:29;;;;;;;2.58;0.80;;;25.50;42.30;;;;;;5046422;28;20025;-48
2022/05/23 09:31:10;;;;;;;2.33;0.80;;;25.50;42.30;;;;;;5046449;28;20048;-48
2022/05/23 09:33:47;;;;;;;2.65;0.88;;;25.50;42.30;;;;;;5046198;28;20105;-48
2022/05/23 09:36:34;;;;;;;3.08;0.95;;;25.50;42.30;;;;;;5046168;28;20112;-48
2022/05/23 09:39:05;;;;;;;1.85;0.77;;;25.50;42.30;;;;;;5045961;28;20033;-49
2022/05/23 09:50:05;;;;;;;1.85;0.52;;;25.50;42.20;;;;;;5044971;28;20079;-48
2022/05/23 09:52:46;;;;;;;1.85;0.70;;;25.50;42.30;;;;;;5044041;28;20032;-48
2022/05/23 09:55:22;;;;;;;1.98;0.70;;;25.50;42.30;;;;;;5045525;28;20025;-48
2022/05/23 09:57:53;;;;;;;2.70;0.82;;;25.50;43.00;;;;;;5045763;28;20669;-48
2022/05/23 10:00:22;;;;;;;2.08;0.73;;;25.50;42.30;;;;;;5045525;28;20413;-48
2022/05/23 10:03:01;;;;;;;1.52;0.70;;;25.50;42.30;;;;;;5045218;28;20025;-49
2022/05/23 10:05:29;;;;;;;2.63;0.80;;;25.50;42.30;;;;;;5045666;28;20870;-48
2022/05/23 10:08:01;;;;;;;2.45;0.75;;;25.50;42.30;;;;;;5045831;28;20057;-48
2022/05/23 10:10:29;;;;;;;2.40;1.08;;;25.50;42.40;;;;;;5045700;28;20029;-48
2022/05/23 10:13:14;;;;;;;1.58;0.60;;;25.50;42.40;;;;;;5043505;28;20037;-48
2022/05/23 10:15:45;;;;;;;1.73;0.68;;;25.50;42.40;;;;;;5034079;28;20103;-46
2022/05/23 10:18:24;;;;;;;2.00;0.82;;;25.50;42.40;;;;;;5045492;28;20118;-48
2022/05/23 10:20:50;;;;;;;1.70;0.60;;;25.50;42.40;;;;;;5045811;28;20051;-47
2022/05/23 10:23:25;;;;;;;1.63;0.68;;;25.50;42.40;;;;;;5045302;28;20043;-49
2022/05/23 10:26:05;;;;;;;2.25;0.80;;;25.50;42.40;;;;;;5045367;28;20048;-49
2022/05/23 10:28:49;;;;;;;2.00;0.90;;;25.50;42.30;;;;;;5045314;28;20037;-49
2022/05/23 10:32:02;;;;;;;2.65;1.08;;;25.50;42.40;;;;;;5045178;28;20033;-48
2022/05/23 10:34:50;;;;;;;2.00;0.88;;;25.50;42.30;;;;;;5045422;28;20481;-48
2022/05/23 10:37:20;;;;;;;4.70;0.85;;;25.50;42.30;;;;;;5045567;28;20045;-48
2022/05/23 10:42:52;;;;;;;0.95;0.50;;;25.50;42.30;;;;;;5045456;28;20132;-48
2022/05/23 10:45:33;;;;;;;2.40;0.73;;;25.50;43.00;;;;;;5045002;28;20777;-48
2022/05/23 10:48:17;;;;;;;2.38;0.55;;;25.50;42.30;;;;;;5045665;28;20025;-48
2022/05/23 10:51:08;;;;;;;1.23;0.50;;;25.50;42.30;;;;;;5045735;28;20391;-48
2022/05/23 10:54:19;;;;;;;1.48;0.65;;;25.50;42.30;;;;;;5026350;28;20041;-49
2022/05/23 10:56:53;;;;;;;2.22;0.60;;;25.50;42.30;;;;;;5041404;28;20052;-47
2022/05/23 10:59:31;;;;;;;1.83;0.70;;;25.50;42.30;;;;;;5043822;28;20043;-48
2022/05/23 11:02:24;;;;;;;2.50;1.02;;;25.50;42.30;;;;;;5043928;28;20033;-49
2022/05/23 11:05:11;;;;;;;1.40;0.50;;;25.50;42.30;;;;;;5044593;28;20324;-48
2022/05/23 11:08:06;;;;;;;1.38;0.73;;;25.50;42.30;;;;;;5044750;28;20061;-48
2022/05/23 11:10:45;;;;;;;1.65;0.73;;;25.50;42.30;;;;;;5044467;28;20540;-48
2022/05/23 11:13:33;;;;;;;2.03;0.65;;;25.50;42.30;;;;;;5026516;28;20040;-49
2022/05/23 11:16:18;;;;;;;2.13;0.75;;;25.50;42.20;;;;;;5041797;28;20444;-48
2022/05/23 11:19:11;;;;;;;1.15;0.57;;;25.50;42.20;;;;;;5044580;28;20037;-48
2022/05/23 11:21:52;;;;;;;2.08;0.80;;;25.60;42.10;;;;;;5044793;28;20064;-48
2022/05/23 11:24:56;;;;;;;1.80;0.65;;;25.50;42.20;;;;;;5044210;28;20021;-48
2022/05/23 11:35:42;;;;;;;1.30;0.50;;;25.60;42.30;;;;;;5044629;28;20021;-48
2022/05/23 11:38:09;;;;;;;1.80;0.70;;;25.60;42.30;;;;;;5043930;28;20495;-48
2022/05/23 11:40:38;;;;;;;1.52;0.65;;;25.60;42.30;;;;;;5044129;28;20086;-48
2022/05/23 11:43:10;;;;;;;0.50;0.35;;;25.60;42.30;;;;;;5043977;28;20093;-48
2022/05/23 11:48:37;;;;;;;1.40;0.50;;;25.60;42.30;;;;;;5042751;28;20544;-49
2022/05/23 11:51:18;;;;;;;1.23;0.40;;;25.60;42.40;;;;;;5042838;28;20706;-49
2022/05/23 11:54:10;;;;;;;1.25;0.50;;;25.60;42.30;;;;;;5042873;28;20482;-49
2022/05/23 11:57:00;;;;;;;2.13;0.80;;;25.60;42.30;;;;;;5043910;28;20036;-48
2022/05/23 11:59:25;;;;;;;2.08;0.80;;;25.70;42.30;;;;;;5043970;28;20041;-48
2022/05/23 12:02:22;;;;;;;1.50;0.60;;;25.70;42.30;;;;;;5043834;28;20453;-47
2022/05/23 12:04:55;;;;;;;1.35;0.50;;;25.70;42.30;;;;;;5013868;28;20041;-47
2022/05/23 12:07:46;;;;;;;1.10;0.40;;;25.60;42.30;;;;;;5043881;28;20032;-49
2022/05/23 12:10:28;;;;;;;1.92;0.60;;;25.70;42.20;;;;;;5044392;28;20120;-48
2022/05/23 12:12:55;;;;;;;0.90;0.52;;;25.60;42.20;;;;;;5043695;28;20103;-48
2022/05/23 12:15:42;;;;;;;1.88;0.60;;;25.60;42.20;;;;;;5039185;28;20041;-48
2022/05/23 12:18:23;;;;;;;1.42;0.60;;;25.70;42.20;;;;;;5044313;28;20373;-48
2022/05/23 12:20:51;;;;;;;1.00;0.47;;;25.70;42.20;;;;;;5044019;28;20078;-48
2022/05/23 12:23:47;;;;;;;2.40;0.75;;;25.70;42.90;;;;;;5043177;28;20029;-48
2022/05/23 12:26:13;;;;;;;0.90;0.40;;;25.70;42.20;;;;;;5044006;28;20082;-48
2022/05/23 12:28:58;;;;;;;1.95;0.90;;;25.70;42.20;;;;;;5043555;28;20029;-47
2022/05/23 12:31:33;;;;;;;0.98;0.60;;;25.70;42.20;;;;;;5025779;28;20108;-47
2022/05/23 12:34:02;;;;;;;1.17;0.38;;;25.70;42.10;;;;;;5025713;28;20051;-48
2022/05/23 12:36:31;;;;;;;1.38;0.47;;;25.60;42.20;;;;;;5043695;28;20028;-47
2022/05/23 12:39:25;;;;;;;1.20;0.50;;;25.70;42.20;;;;;;5043737;28;20041;-48
2022/05/23 12:42:06;;;;;;;0.93;0.40;;;25.70;42.10;;;;;;5043481;28;20546;-47
2022/05/23 12:44:43;;;;;;;1.88;0.77;;;25.70;42.10;;;;;;5043140;28;20112;-47
2022/05/23 12:47:39;;;;;;;1.45;0.52;;;25.70;42.20;;;;;;5043771;28;20083;-47
2022/05/23 12:50:43;;;;;;;1.42;0.43;;;25.70;42.20;;;;;;5043766;28;20022;-49
2022/05/23 12:53:20;;;;;;;1.25;0.55;;;25.70;42.20;;;;;;4978973;28;20029;-47
2022/05/23 12:56:33;;;;;;;1.83;0.63;;;25.70;42.10;;;;;;5047099;28;20048;-48
2022/05/23 12:59:07;;;;;;;1.52;0.63;;;25.70;42.10;;;;;;5041436;28;20065;-49
2022/05/23 13:01:39;;;;;;;0.75;0.30;;;25.70;42.10;;;;;;5046945;28;20087;-49
2022/05/23 13:04:19;;;;;;;1.27;0.50;;;25.70;42.10;;;;;;5046711;28;20035;-49
2022/05/23 13:07:36;;;;;;;1.35;0.40;;;25.70;42.10;;;;;;5046942;28;20036;-49
2022/05/23 13:10:08;;;;;;;1.65;0.60;;;25.70;42.10;;;;;;4984716;28;20030;-49
2022/05/23 13:13:03;;;;;;;1.88;0.60;;;25.70;42.00;;;;;;5036453;28;20068;-48
2022/05/23 13:15:30;;;;;;;1.52;0.60;;;25.70;42.20;;;;;;5044032;28;20029;-47
2022/05/23 13:22:05;;;;;;;1.42;0.57;;;25.80;42.30;;;;;;5046750;28;20025;-48
2022/05/23 13:23:29;;;;;;;0.93;0.43;;;25.80;42.20;;;;;;5046114;28;20252;-48
2022/05/23 13:25:56;;;;;;;1.00;0.43;;;25.80;42.30;;;;;;5046031;28;20021;-48
2022/05/23 13:28:22;;;;;;;1.30;0.45;;;25.80;42.30;;;;;;5046205;28;20107;-48
2022/05/23 13:30:56;;;;;;;1.38;0.52;;;25.80;42.30;;;;;;5046224;28;20025;-48
2022/05/23 13:33:26;;;;;;;2.45;0.80;;;25.80;42.30;;;;;;5045833;28;20256;-49
2022/05/23 13:36:00;;;;;;;1.38;0.50;;;25.80;42.20;;;;;;5046439;28;20619;-49
2022/05/23 13:38:29;;;;;;;1.77;0.70;;;25.80;42.20;;;;;;5046248;28;20029;-48
2022/05/23 13:41:00;;;;;;;0.88;0.30;;;25.80;42.20;;;;;;5045673;28;20546;-48
2022/05/23 13:43:42;;;;;;;1.88;0.50;;;25.80;42.20;;;;;;5045226;28;20075;-49
2022/05/23 13:46:13;;;;;;;0.87;0.43;;;25.90;42.20;;;;;;5044574;28;20017;-47
2022/05/23 13:48:45;;;;;;;3.63;0.70;;;25.90;41.90;;;;;;5032130;28;20111;-47
2022/05/23 13:51:46;;;;;;;1.33;0.60;;;25.90;42.30;;;;;;5028501;28;20660;-48
2022/05/23 13:54:19;;;;;;;3.97;1.55;;;25.90;42.20;;;;;;5040712;28;20048;-48
2022/05/23 13:56:50;;;;;;;2.63;0.82;;;25.90;41.50;;;;;;5045545;28;20500;-46
2022/05/23 13:59:22;;;;;;;1.58;0.60;;;26.00;42.20;;;;;;5046117;28;20120;-49
2022/05/23 14:01:59;;;;;;;2.92;0.90;;;26.00;42.70;;;;;;5045313;28;20064;-47
2022/05/23 14:04:31;;;;;;;1.90;0.77;;;26.00;42.50;;;;;;5027694;28;20037;-49
2022/05/23 14:07:20;;;;;;;2.20;0.80;;;26.00;42.50;;;;;;5025892;28;20030;-48
2022/05/23 14:09:51;;;;;;;2.90;0.95;;;26.00;42.30;;;;;;5025751;28;20033;-48
2022/05/23 14:12:21;;;;;;;2.47;0.90;;;26.10;42.20;;;;;;5043672;28;20100;-48
2022/05/23 14:15:23;;;;;;;1.88;0.90;;;26.10;42.00;;;;;;5045967;28;20096;-48
2022/05/23 14:17:51;;;;;;;3.13;1.23;;;26.10;41.70;;;;;;5026698;28;20427;-47
2022/05/23 14:20:41;;;;;;;2.47;1.25;;;26.10;41.40;;;;;;5044948;28;20041;-47